Time;durP1;ratioP1;P1;durP2;ratioP2;P2;SDS_P1;SDS_P2;PMS_P1;PMS_P2;Temp;Humidity;BMP_temperature;BMP_pressure;BME280_temperature;BME280_humidity;BME280_pressure;Samples;Min_cycle;Max_cycle;Signal;HPM_P1;HPM_P2
2022/11/26 00:01:27;;;;;;;108.27;40.17;;;;;;;3.55;100.00;101127.75;3643740;79;28463;-84
2022/11/26 00:06:35;;;;;;;78.33;31.40;;;;;;;3.57;100.00;101134.25;3628107;80;98963;-84
2022/11/26 00:11:36;;;;;;;187.20;62.20;;;;;;;3.62;100.00;101140.92;3635796;79;28104;-84
2022/11/26 00:16:37;;;;;;;107.23;41.70;;;;;;;3.60;100.00;101146.67;3619622;79;98976;-83
2022/11/26 00:21:40;;;;;;;137.47;47.23;;;;;;;3.60;100.00;101154.05;3630832;79;35488;-84
2022/11/26 00:26:41;;;;;;;137.43;47.03;;;;;;;3.62;100.00;101159.97;3601559;79;99229;-84
2022/11/26 00:31:41;;;;;;;93.87;39.13;;;;;;;3.65;100.00;101162.08;3610261;79;35006;-84
2022/11/26 00:36:43;;;;;;;138.83;44.00;;;;;;;3.68;100.00;101161.44;3602770;79;98807;-84
2022/11/26 00:41:49;;;;;;;141.63;46.63;;;;;;;3.70;100.00;101163.28;3615293;81;34832;-84
2022/11/26 00:46:51;;;;;;;129.20;42.83;;;;;;;3.70;100.00;101161.38;3615895;80;98728;-83
2022/11/26 00:51:52;;;;;;;127.10;45.53;;;;;;;3.69;100.00;101169.30;3610036;79;26881;-84
2022/11/26 00:56:53;;;;;;;115.73;45.73;;;;;;;3.70;100.00;101166.00;3625183;79;98959;-83
2022/11/26 01:01:54;;;;;;;146.40;48.93;;;;;;;3.63;100.00;101171.91;3623866;79;34871;-84
2022/11/26 01:06:55;;;;;;;125.43;44.37;;;;;;;3.59;100.00;101170.11;3608237;79;98915;-83
2022/11/26 01:11:55;;;;;;;103.22;37.70;;;;;;;3.61;100.00;101171.98;3600088;81;34903;-84
2022/11/26 01:16:56;;;;;;;158.12;56.25;;;;;;;3.62;100.00;101179.84;3583812;80;98929;-84
2022/11/26 01:21:57;;;;;;;95.87;37.97;;;;;;;3.64;100.00;101174.06;3582307;81;35778;-84
2022/11/26 01:26:58;;;;;;;121.63;47.90;;;;;;;3.64;100.00;101191.20;3585461;80;98765;-83
2022/11/26 01:31:59;;;;;;;109.42;42.08;;;;;;;3.64;100.00;101186.30;3584792;80;34946;-83
2022/11/26 01:37:00;;;;;;;120.53;43.87;;;;;;;3.66;100.00;101195.77;3573820;81;98788;-82
2022/11/26 01:42:35;;;;;;;114.70;44.63;;;;;;;3.63;100.00;101184.16;3596844;80;33078;-83
2022/11/26 01:47:36;;;;;;;99.60;36.77;;;;;;;3.68;100.00;101186.75;3582467;80;98959;-83
2022/11/26 01:52:37;;;;;;;115.67;44.42;;;;;;;3.67;100.00;101185.70;3587379;80;32951;-84
2022/11/26 01:57:38;;;;;;;131.93;47.30;;;;;;;3.65;100.00;101190.66;3590848;81;98919;-83
2022/11/26 02:02:40;;;;;;;118.20;41.33;;;;;;;3.66;100.00;101193.63;3595167;80;33179;-83
2022/11/26 02:07:41;;;;;;;104.80;41.70;;;;;;;3.66;100.00;101202.58;3581016;81;99032;-82
2022/11/26 02:12:42;;;;;;;102.40;40.90;;;;;;;3.66;100.00;101199.85;3592203;81;33145;-83
2022/11/26 02:17:51;;;;;;;126.57;47.10;;;;;;;3.65;100.00;101192.02;3584438;80;99027;-83
2022/11/26 02:23:28;;;;;;;131.43;44.83;;;;;;;3.64;100.00;101191.20;3583581;81;31138;-83
2022/11/26 02:28:57;;;;;;;152.67;51.73;;;;;;;3.62;100.00;101192.09;3594428;80;30076;-83
2022/11/26 02:34:06;;;;;;;86.28;35.33;;;;;;;3.62;100.00;101196.72;3587677;81;99068;-83
2022/11/26 02:39:14;;;;;;;100.10;33.05;;;;;;;3.63;100.00;101197.77;3587149;80;34584;-82
2022/11/26 02:44:19;;;;;;;105.72;34.88;;;;;;;3.61;100.00;101193.75;3584171;80;99032;-83
2022/11/26 02:49:22;;;;;;;95.20;34.25;;;;;;;3.60;100.00;101194.88;3588001;80;34396;-83
2022/11/26 02:54:25;;;;;;;90.72;35.78;;;;;;;3.54;100.00;101198.81;3583781;81;99011;-83
2022/11/26 02:59:27;;;;;;;111.12;37.03;;;;;;;3.56;100.00;101211.00;3607594;80;34798;-83
2022/11/26 03:04:35;;;;;;;91.53;36.63;;;;;;;3.62;100.00;101213.86;3581681;81;99034;-83
2022/11/26 03:09:43;;;;;;;89.87;35.80;;;;;;;3.63;100.00;101227.71;3588486;80;30126;-83
2022/11/26 03:14:45;;;;;;;99.80;34.53;;;;;;;3.64;100.00;101229.31;3582256;80;98860;-83
2022/11/26 03:19:47;;;;;;;151.03;47.10;;;;;;;3.59;100.00;101229.44;3592606;80;32514;-83
2022/11/26 03:24:47;;;;;;;179.78;60.40;;;;;;;3.56;100.00;101245.02;3582487;80;99204;-84
2022/11/26 03:29:48;;;;;;;83.07;32.30;;;;;;;3.53;100.00;101251.09;3587964;80;26389;-84
2022/11/26 03:34:49;;;;;;;108.10;38.07;;;;;;;3.51;100.00;101253.34;3573912;81;98998;-84
2022/11/26 03:39:50;;;;;;;89.43;32.40;;;;;;;3.52;100.00;101256.84;3588738;80;33478;-83
2022/11/26 03:44:51;;;;;;;74.47;32.63;;;;;;;3.54;100.00;101254.61;3580694;80;98942;-84
2022/11/26 03:49:52;;;;;;;144.60;47.77;;;;;;;3.58;100.00;101259.14;3583908;81;33111;-83
2022/11/26 03:54:53;;;;;;;89.65;33.20;;;;;;;3.56;100.00;101264.64;3598192;80;98931;-83
2022/11/26 03:59:54;;;;;;;79.23;32.83;;;;;;;3.50;100.00;101263.95;3594883;80;32422;-84
2022/11/26 04:04:54;;;;;;;121.42;39.45;;;;;;;3.55;100.00;101265.19;3585713;81;98787;-84
2022/11/26 04:09:55;;;;;;;79.03;29.13;;;;;;;3.60;100.00;101283.33;3588097;81;28276;-83
2022/11/26 04:14:56;;;;;;;79.77;31.83;;;;;;;3.64;100.00;101286.47;3598489;79;99063;-84
2022/11/26 04:19:57;;;;;;;91.47;32.17;;;;;;;3.66;100.00;101291.04;3612926;81;26235;-84
2022/11/26 04:24:57;;;;;;;74.90;27.90;;;;;;;3.69;100.00;101297.23;3602009;79;98988;-84
2022/11/26 04:29:58;;;;;;;83.67;31.90;;;;;;;3.69;100.00;101305.41;3629092;79;26134;-83
2022/11/26 04:34:59;;;;;;;81.23;30.80;;;;;;;3.68;100.00;101316.05;3576643;80;99094;-83
2022/11/26 04:40:00;;;;;;;103.50;38.13;;;;;;;3.67;100.00;101316.36;3624617;79;26273;-84
2022/11/26 04:45:01;;;;;;;91.50;35.68;;;;;;;3.64;100.00;101321.05;3606386;79;99170;-83
2022/11/26 04:50:02;;;;;;;99.57;33.50;;;;;;;3.56;100.00;101330.75;3628989;81;33297;-84
2022/11/26 04:55:03;;;;;;;76.43;29.93;;;;;;;3.53;100.00;101330.56;3617494;79;98972;-83
2022/11/26 05:00:07;;;;;;;75.67;30.50;;;;;;;3.54;100.00;101333.53;3612631;79;33337;-83
2022/11/26 05:05:07;;;;;;;95.75;31.65;;;;;;;3.58;100.00;101335.34;3553164;82;98931;-84
2022/11/26 05:10:09;;;;;;;78.70;31.27;;;;;;;3.62;100.00;101347.23;3599992;80;33267;-84
2022/11/26 05:15:10;;;;;;;83.70;31.60;;;;;;;3.61;100.00;101354.34;3590723;81;99074;-84
2022/11/26 05:20:13;;;;;;;106.90;38.90;;;;;;;3.62;100.00;101354.04;3596134;81;33134;-84
2022/11/26 05:25:14;;;;;;;115.27;43.27;;;;;;;3.62;100.00;101353.22;3608783;80;99152;-84
2022/11/26 05:30:15;;;;;;;106.07;38.47;;;;;;;3.59;100.00;101356.55;3605158;81;33296;-84
2022/11/26 05:35:16;;;;;;;98.03;35.20;;;;;;;3.57;100.00;101373.75;3592063;80;99207;-83
2022/11/26 05:40:17;;;;;;;92.87;32.50;;;;;;;3.56;100.00;101377.02;3607465;79;33191;-84
2022/11/26 05:45:18;;;;;;;74.60;31.57;;;;;;;3.57;100.00;101386.00;3601317;81;99054;-84
2022/11/26 05:50:19;;;;;;;68.13;27.63;;;;;;;3.59;100.00;101384.58;3600741;79;33222;-83
2022/11/26 05:55:20;;;;;;;71.53;28.30;;;;;;;3.61;100.00;101390.52;3605695;81;99411;-83
2022/11/26 06:00:22;;;;;;;77.13;27.73;;;;;;;3.63;100.00;101396.47;3607805;79;33167;-83
2022/11/26 06:05:22;;;;;;;69.23;27.03;;;;;;;3.63;100.00;101399.73;3607908;80;98937;-82
2022/11/26 06:10:23;;;;;;;81.70;29.47;;;;;;;3.59;100.00;101412.34;3609302;79;33885;-83
2022/11/26 06:15:24;;;;;;;75.77;30.23;;;;;;;3.55;100.00;101414.09;3587797;80;98942;-83
2022/11/26 06:20:25;;;;;;;91.07;29.30;;;;;;;3.52;100.00;101408.70;3599557;80;32035;-83
2022/11/26 06:25:26;;;;;;;72.70;28.92;;;;;;;3.48;100.00;101428.65;3593482;80;98783;-83
2022/11/26 06:30:27;;;;;;;92.42;31.77;;;;;;;3.42;100.00;101424.43;3602713;80;31685;-83
2022/11/26 06:35:28;;;;;;;85.50;31.20;;;;;;;3.42;100.00;101429.87;3598192;80;98873;-82
2022/11/26 06:40:28;;;;;;;72.17;26.20;;;;;;;3.36;100.00;101443.34;3601841;81;31665;-83
2022/11/26 06:45:29;;;;;;;85.40;30.23;;;;;;;3.35;100.00;101447.17;3590231;80;98807;-83
2022/11/26 06:50:30;;;;;;;94.77;31.50;;;;;;;3.36;100.00;101453.68;3595504;81;31609;-83
2022/11/26 06:55:31;;;;;;;98.13;33.43;;;;;;;3.36;100.00;101466.47;3592201;80;99046;-83
2022/11/26 07:00:32;;;;;;;110.88;31.93;;;;;;;3.33;100.00;101478.77;3596094;81;31960;-83
2022/11/26 07:05:34;;;;;;;91.20;32.73;;;;;;;3.34;100.00;101483.66;3596767;81;99280;-83
2022/11/26 07:10:35;;;;;;;86.75;30.52;;;;;;;3.24;100.00;101494.74;3632435;80;31413;-83
2022/11/26 07:15:36;;;;;;;93.33;34.53;;;;;;;3.26;100.00;101499.31;3623413;79;99317;-83
2022/11/26 07:20:37;;;;;;;86.43;29.27;;;;;;;3.29;100.00;101511.75;3623680;79;34899;-84
2022/11/26 07:25:38;;;;;;;99.30;32.77;;;;;;;3.33;100.00;101516.84;3622514;79;98967;-83
2022/11/26 07:30:38;;;;;;;94.37;31.97;;;;;;;3.35;100.00;101519.28;3623945;79;34874;-83
2022/11/26 07:35:39;;;;;;;116.87;33.33;;;;;;;3.38;100.00;101529.56;3611543;79;98898;-83
2022/11/26 07:40:40;;;;;;;99.57;32.60;;;;;;;3.40;100.00;101536.86;3621334;79;35140;-83
2022/11/26 07:45:41;;;;;;;87.72;29.42;;;;;;;3.42;100.00;101540.08;3612667;80;98945;-83
2022/11/26 07:50:43;;;;;;;95.87;31.73;;;;;;;3.48;100.00;101549.20;3628790;79;26204;-83
2022/11/26 07:55:44;;;;;;;94.13;32.20;;;;;;;3.47;100.00;101546.24;3613004;79;98962;-83
2022/11/26 08:00:45;;;;;;;84.90;30.53;;;;;;;3.52;100.00;101553.48;3644144;79;25847;-83
2022/11/26 08:05:46;;;;;;;85.63;30.07;;;;;;;3.53;100.00;101553.73;3626247;79;98878;-84
2022/11/26 08:10:46;;;;;;;91.20;33.83;;;;;;;3.52;100.00;101561.11;3633135;79;33136;-84
2022/11/26 08:15:48;;;;;;;81.80;28.93;;;;;;;3.54;100.00;101560.24;3602817;79;99020;-85
2022/11/26 08:20:56;;;;;;;76.37;27.93;;;;;;;3.55;100.00;101568.66;3602296;80;33092;-85
2022/11/26 08:25:58;;;;;;;89.25;31.50;;;;;;;3.61;100.00;101573.45;3591348;80;98862;-85
2022/11/26 08:31:05;;;;;;;87.27;29.20;;;;;;;3.68;100.00;101572.48;3603616;80;33133;-85
2022/11/26 08:36:07;;;;;;;87.35;30.75;;;;;;;3.65;100.00;101571.75;3593209;80;99066;-85
2022/11/26 08:41:11;;;;;;;89.25;29.55;;;;;;;3.67;100.00;101584.50;3604643;80;35423;-85
2022/11/26 08:46:12;;;;;;;86.63;32.93;;;;;;;3.74;100.00;101587.06;3592161;80;99032;-85
2022/11/26 08:51:13;;;;;;;72.30;28.13;;;;;;;3.86;100.00;101587.89;3595439;80;31262;-84
2022/11/26 08:56:14;;;;;;;70.03;26.20;;;;;;;3.96;100.00;101616.29;3594516;80;98902;-85
2022/11/26 09:01:21;;;;;;;61.20;22.43;;;;;;;4.07;100.00;101606.25;3595153;80;32548;-84
2022/11/26 09:06:25;;;;;;;61.00;22.32;;;;;;;4.13;100.00;101610.47;3594724;80;99071;-85
2022/11/26 09:11:26;;;;;;;67.37;25.05;;;;;;;4.26;100.00;101610.98;3605954;80;33947;-84
2022/11/26 09:16:27;;;;;;;58.40;21.68;;;;;;;4.36;100.00;101608.05;3627569;79;98895;-84
2022/11/26 09:21:29;;;;;;;58.43;22.77;;;;;;;4.45;100.00;101619.02;3634261;79;26184;-84
2022/11/26 09:26:32;;;;;;;58.30;23.32;;;;;;;4.55;100.00;101629.16;3627351;79;98957;-84
2022/11/26 09:31:32;;;;;;;56.08;21.68;;;;;;;4.64;100.00;101631.38;3640095;79;35790;-84
2022/11/26 09:36:33;;;;;;;59.73;23.57;;;;;;;4.71;100.00;101630.41;3622837;79;98739;-84
2022/11/26 09:42:06;;;;;;;61.63;21.93;;;;;;;4.75;100.00;101636.05;3643408;79;32463;-84
2022/11/26 09:47:21;;;;;;;63.02;24.80;;;;;;;4.76;100.00;101632.98;3628693;79;98942;-84
2022/11/26 09:52:46;;;;;;;58.08;23.55;;;;;;;4.72;100.00;101640.20;3631861;79;33904;-84
2022/11/26 09:57:52;;;;;;;68.87;25.80;;;;;;;4.71;100.00;101652.23;3625333;79;98807;-84
2022/11/26 10:02:55;;;;;;;60.52;24.75;;;;;;;4.69;100.00;101650.92;3623891;79;26235;-83
2022/11/26 10:08:11;;;;;;;59.48;24.27;;;;;;;4.68;100.00;101656.10;3623404;79;98490;-84
2022/11/26 10:13:23;;;;;;;54.35;23.38;;;;;;;4.73;100.00;101662.27;3622620;79;98885;-84
2022/11/26 10:18:41;;;;;;;62.20;26.63;;;;;;;4.78;100.00;101669.50;3622475;79;30112;-85
2022/11/26 10:23:48;;;;;;;65.25;24.80;;;;;;;4.83;100.00;101666.12;3623207;79;98915;-84
2022/11/26 10:28:54;;;;;;;62.58;25.23;;;;;;;4.89;100.00;101677.16;3591491;79;25937;-84
2022/11/26 10:34:00;;;;;;;;;;;;;;;4.94;100.00;101674.86;3627781;79;98979;-83
2022/11/26 10:39:01;;;;;;;64.55;23.50;;;;;;;5.01;100.00;101672.49;3624829;79;34811;-84
2022/11/26 10:44:38;;;;;;;50.93;21.10;;;;;;;5.04;100.00;101674.08;3622442;79;99116;-85
2022/11/26 10:49:39;;;;;;;51.25;20.17;;;;;;;5.10;100.00;101668.73;3635970;79;33639;-86
2022/11/26 10:54:40;;;;;;;50.57;22.30;;;;;;;5.14;100.00;101664.25;3624044;79;98897;-84
2022/11/26 10:59:50;;;;;;;47.67;19.50;;;;;;;5.22;100.00;101666.79;3627332;79;32453;-84
2022/11/26 11:04:54;;;;;;;43.92;19.75;;;;;;;5.30;100.00;101676.39;3632504;79;98872;-84
2022/11/26 11:10:13;;;;;;;42.48;18.57;;;;;;;5.32;100.00;101672.00;3629063;79;33805;-84
2022/11/26 11:15:27;;;;;;;43.17;18.90;;;;;;;5.41;100.00;101676.97;3617889;79;98992;-84
2022/11/26 11:20:35;;;;;;;43.50;18.85;;;;;;;5.46;100.00;101683.66;3645979;80;36122;-85
2022/11/26 11:25:39;;;;;;;41.18;17.07;;;;;;;5.51;100.00;101681.59;3636499;79;99046;-84
2022/11/26 11:30:43;;;;;;;51.80;23.10;;;;;;;5.64;100.00;101688.91;3636682;79;33042;-85
2022/11/26 11:35:44;;;;;;;43.60;20.30;;;;;;;5.74;100.00;101693.28;3637276;79;99301;-86
2022/11/26 11:40:44;;;;;;;48.87;21.27;;;;;;;5.82;100.00;101700.73;3640837;79;26408;-86
2022/11/26 11:46:13;;;;;;;42.53;18.37;;;;;;;5.88;100.00;101698.11;3634435;80;99084;-86
2022/11/26 11:51:52;;;;;;;57.03;26.52;;;;;;;5.80;100.00;101699.70;3650453;80;35844;-86
2022/11/26 11:57:07;;;;;;;58.60;25.50;;;;;;;5.62;100.00;101712.19;3520298;80;98688;-85
2022/11/26 12:02:49;;;;;;;52.73;23.13;;;;;;;5.58;100.00;101713.92;3602250;79;28190;-86
2022/11/26 12:08:01;;;;;;;47.53;22.73;;;;;;;5.57;100.00;101715.84;3587488;80;98870;-87
2022/11/26 12:13:06;;;;;;;54.77;22.65;;;;;;;5.58;100.00;101724.84;3587914;81;34916;-84
2022/11/26 12:18:49;;;;;;;44.95;18.98;;;;;;;5.64;100.00;101723.05;3592240;80;35546;-86
2022/11/26 12:24:22;;;;;;;50.63;21.10;;;;;;;5.66;100.00;101724.89;3585601;80;99017;-86
2022/11/26 12:29:46;;;;;;;45.85;20.55;;;;;;;5.57;100.00;101728.13;3621681;80;34284;-86
2022/11/26 12:34:51;;;;;;;37.10;16.20;;;;;;;5.51;100.00;101732.11;3611397;80;99018;-86
2022/11/26 12:40:15;;;;;;;40.83;17.35;;;;;;;5.50;100.00;101732.41;3635598;80;34926;-86
2022/11/26 12:45:34;;;;;;;37.45;16.07;;;;;;;5.48;100.00;101739.57;3625155;79;98682;-84
2022/11/26 12:50:40;;;;;;;33.60;17.77;;;;;;;5.45;100.00;101738.81;3641865;79;34817;-86
2022/11/26 12:56:12;;;;;;;42.70;16.35;;;;;;;5.46;100.00;101732.80;3638392;79;99260;-86
2022/11/26 13:01:13;;;;;;;37.55;17.17;;;;;;;5.48;100.00;101744.21;3635481;79;34757;-85
2022/11/26 13:06:25;;;;;;;38.30;16.23;;;;;;;5.50;100.00;101739.23;3633551;80;98959;-87
2022/11/26 13:11:40;;;;;;;41.05;17.73;;;;;;;5.50;100.00;101737.88;3634317;80;34943;-88
2022/11/26 13:16:59;;;;;;;38.38;18.02;;;;;;;5.43;100.00;101740.24;3616756;79;98934;-87
2022/11/26 13:22:40;;;;;;;56.15;26.68;;;;;;;5.38;100.00;101741.18;3621956;79;34011;-88
2022/11/26 13:28:22;;;;;;;43.10;21.85;;;;;;;5.36;100.00;101748.86;3611572;79;98742;-87
2022/11/26 13:33:57;;;;;;;47.70;25.73;;;;;;;5.35;100.00;101757.38;3603793;79;99290;-88
2022/11/26 13:39:37;;;;;;;40.52;21.45;;;;;;;5.34;100.00;101759.86;3626944;79;35365;-87
2022/11/26 13:44:53;;;;;;;41.95;19.02;;;;;;;5.28;100.00;101752.34;3624202;79;98880;-87
2022/11/26 13:50:05;;;;;;;41.48;19.23;;;;;;;5.26;100.00;101761.41;3625758;79;32956;-87
2022/11/26 13:55:17;;;;;;;42.80;18.90;;;;;;;5.22;100.00;101765.86;3615933;79;99131;-86
2022/11/26 14:00:27;;;;;;;42.60;19.50;;;;;;;5.24;100.00;101769.66;3631719;79;27177;-87
2022/11/26 14:05:56;;;;;;;43.55;19.20;;;;;;;5.19;100.00;101776.59;3619597;79;98850;-86
2022/11/26 14:10:56;;;;;;;47.53;21.33;;;;;;;5.14;100.00;101782.95;3626665;79;32941;-84
2022/11/26 14:16:09;;;;;;;52.97;27.87;;;;;;;5.00;100.00;101793.12;3625655;79;98883;-84
2022/11/26 14:21:12;;;;;;;52.20;27.77;;;;;;;4.96;100.00;101785.86;3627635;79;33056;-85
2022/11/26 14:26:38;;;;;;;44.48;22.30;;;;;;;4.92;100.00;101784.27;3616896;79;99092;-86
2022/11/26 14:31:52;;;;;;;47.85;21.42;;;;;;;4.89;100.00;101779.45;3627390;81;26315;-85
2022/11/26 14:36:58;;;;;;;43.15;19.87;;;;;;;4.77;100.00;101788.72;3617616;79;98990;-83
2022/11/26 14:41:59;;;;;;;46.15;19.70;;;;;;;4.75;100.00;101796.38;3627890;79;34854;-84
2022/11/26 14:47:09;;;;;;;44.50;19.17;;;;;;;4.70;100.00;101799.79;3627815;79;98716;-85
2022/11/26 14:52:24;;;;;;;47.03;20.88;;;;;;;4.68;100.00;101810.17;3630395;79;34916;-85
2022/11/26 14:57:45;;;;;;;49.83;22.52;;;;;;;4.69;100.00;101821.36;3622873;79;98803;-84
2022/11/26 15:02:46;;;;;;;81.40;31.80;;;;;;;4.71;100.00;101825.94;3633385;79;35190;-84
2022/11/26 15:08:01;;;;;;;64.83;29.90;;;;;;;4.65;100.00;101823.06;3626040;79;98909;-84
2022/11/26 15:13:12;;;;;;;69.17;30.30;;;;;;;4.63;100.00;101826.66;3623137;79;31109;-84
2022/11/26 15:18:13;;;;;;;75.47;31.68;;;;;;;4.58;100.00;101834.38;3616310;79;34132;-85
2022/11/26 15:23:14;;;;;;;71.87;32.33;;;;;;;4.58;100.00;101836.30;3619227;79;98882;-88
2022/11/26 15:28:21;;;;;;;75.20;31.63;;;;;;;4.53;100.00;101835.04;3625759;79;25835;-88
2022/11/26 15:33:22;;;;;;;69.25;30.35;;;;;;;4.47;100.00;101835.68;3617449;79;98972;-87
2022/11/26 15:38:27;;;;;;;67.55;30.95;;;;;;;4.41;100.00;101838.25;3629501;79;34844;-86
2022/11/26 15:43:44;;;;;;;62.38;27.37;;;;;;;4.42;100.00;101856.22;3620717;79;98935;-86
2022/11/26 15:48:53;;;;;;;63.73;28.45;;;;;;;4.44;100.00;101847.75;3628203;79;34124;-86
2022/11/26 15:53:54;;;;;;;61.70;28.67;;;;;;;4.44;100.00;101841.75;3614815;79;99403;-87
2022/11/26 15:58:58;;;;;;;67.30;31.60;;;;;;;4.40;100.00;101843.45;3627007;79;32696;-86
2022/11/26 16:04:03;;;;;;;61.92;28.12;;;;;;;4.41;100.00;101846.43;3619031;79;98989;-86
2022/11/26 16:09:14;;;;;;;61.40;28.40;;;;;;;4.41;100.00;101850.52;3630515;79;34601;-86
2022/11/26 16:14:36;;;;;;;61.28;28.80;;;;;;;4.43;100.00;101850.23;3618474;81;98808;-87
2022/11/26 16:19:51;;;;;;;61.15;28.67;;;;;;;4.41;100.00;101842.88;3632530;79;34946;-86
2022/11/26 16:25:06;;;;;;;70.57;33.53;;;;;;;4.37;100.00;101858.25;3607437;79;99180;-86
2022/11/26 16:30:13;;;;;;;72.40;31.02;;;;;;;4.37;100.00;101859.04;3623327;79;33875;-87
2022/11/26 16:35:14;;;;;;;61.90;28.70;;;;;;;4.34;100.00;101860.20;3629459;79;99122;-86
2022/11/26 16:40:17;;;;;;;64.07;31.00;;;;;;;4.34;100.00;101860.20;3599471;79;25890;-87
2022/11/26 16:45:19;;;;;;;67.58;31.75;;;;;;;4.30;100.00;101855.91;3620496;79;99155;-87
2022/11/26 16:50:24;;;;;;;68.60;33.18;;;;;;;4.29;100.00;101857.56;3634226;79;33926;-87
2022/11/26 16:55:25;;;;;;;66.12;30.27;;;;;;;4.29;100.00;101859.75;3613762;79;99070;-87
2022/11/26 17:00:26;;;;;;;75.62;34.73;;;;;;;4.29;100.00;101857.56;3627021;79;34811;-86
2022/11/26 17:05:27;;;;;;;73.60;34.00;;;;;;;4.20;100.00;101856.08;3621873;79;99077;-86
2022/11/26 17:10:29;;;;;;;83.10;35.03;;;;;;;4.21;100.00;101862.36;3620267;79;33846;-86
2022/11/26 17:15:29;;;;;;;78.13;35.60;;;;;;;4.20;100.00;101864.26;3614714;79;98933;-86
2022/11/26 17:20:30;;;;;;;78.77;34.43;;;;;;;4.17;100.00;101866.23;3606742;79;33230;-86
2022/11/26 17:25:31;;;;;;;85.57;35.33;;;;;;;4.20;100.00;101866.19;3599019;80;99060;-86
2022/11/26 17:30:32;;;;;;;75.63;33.80;;;;;;;4.21;100.00;101868.59;3588941;81;32473;-85
2022/11/26 17:35:34;;;;;;;74.23;34.13;;;;;;;4.20;100.00;101862.89;3589263;80;98837;-87
2022/11/26 17:40:34;;;;;;;83.07;38.17;;;;;;;4.19;100.00;101872.19;3589624;81;32463;-87
2022/11/26 17:45:36;;;;;;;62.37;30.77;;;;;;;4.20;100.00;101883.34;3583726;81;98830;-86
2022/11/26 17:50:37;;;;;;;68.83;31.97;;;;;;;4.17;100.00;101875.78;3594317;80;32576;-87
2022/11/26 17:55:38;;;;;;;80.32;39.08;;;;;;;4.12;100.00;101884.58;3531722;82;98989;-86
2022/11/26 18:00:39;;;;;;;133.70;60.70;;;;;;;4.06;100.00;101879.78;3605348;80;32507;-87
2022/11/26 18:05:40;;;;;;;140.20;64.73;;;;;;;4.02;100.00;101886.92;3593751;80;99050;-88
2022/11/26 18:10:40;;;;;;;121.57;59.13;;;;;;;4.01;100.00;101890.77;3596472;80;26328;-89
2022/11/26 18:15:42;;;;;;;115.50;55.53;;;;;;;3.96;100.00;101894.11;3592591;80;99444;-89
2022/11/26 18:20:42;;;;;;;113.43;52.47;;;;;;;3.97;100.00;101892.99;3532159;82;26121;-87
2022/11/26 18:25:44;;;;;;;105.83;51.73;;;;;;;3.95;100.00;101891.95;3592930;81;99358;-87
2022/11/26 18:30:46;;;;;;;139.70;65.13;;;;;;;3.97;100.00;101902.53;3598631;80;26178;-88
2022/11/26 18:35:49;;;;;;;143.97;66.63;;;;;;;3.98;100.00;101897.36;3604732;80;99187;-88
2022/11/26 18:41:02;;;;;;;140.30;60.60;;;;;;;3.98;100.00;101912.34;3605817;80;28339;-87
2022/11/26 18:46:05;;;;;;;113.67;52.67;;;;;;;3.95;100.00;101911.56;3592937;80;99314;-88
2022/11/26 18:51:06;;;;;;;110.25;51.55;;;;;;;3.94;100.00;101907.22;3601493;80;32020;-89
2022/11/26 18:56:13;;;;;;;99.83;46.20;;;;;;;3.95;100.00;101909.66;3598887;80;99096;-88
2022/11/26 19:01:16;;;;;;;;;;;;;;;3.91;100.00;101914.61;3603790;80;27462;-88
2022/11/26 19:06:20;;;;;;;96.00;42.70;;;;;;;3.88;100.00;101905.69;3604518;80;85019;-88
2022/11/26 19:11:26;;;;;;;107.32;51.42;;;;;;;3.88;100.00;101906.48;3612957;80;32988;-88
2022/11/26 19:16:27;;;;;;;113.95;52.35;;;;;;;3.89;100.00;101899.95;3598161;80;99195;-88
2022/11/26 19:21:31;;;;;;;112.70;48.63;;;;;;;3.89;100.00;101893.15;3608916;80;25976;-88
2022/11/26 19:26:33;;;;;;;83.95;40.23;;;;;;;3.83;100.00;101892.16;3590686;80;98980;-88
2022/11/26 19:31:37;;;;;;;110.40;49.83;;;;;;;3.80;100.00;101903.63;3581116;80;27445;-88
2022/11/26 19:36:38;;;;;;;104.25;51.23;;;;;;;3.77;100.00;101909.11;3595185;80;99008;-88
2022/11/26 19:41:39;;;;;;;110.47;57.93;;;;;;;3.69;100.00;101921.22;3590144;80;26350;-88
2022/11/26 19:46:40;;;;;;;114.90;56.47;;;;;;;3.64;100.00;101928.09;3596218;80;99252;-88
2022/11/26 19:51:41;;;;;;;100.57;45.77;;;;;;;3.63;100.00;101919.67;3601956;80;25993;-89
2022/11/26 19:56:42;;;;;;;118.67;54.63;;;;;;;3.64;100.00;101913.12;3589159;80;99057;-90
2022/11/26 20:01:43;;;;;;;111.03;51.03;;;;;;;3.65;100.00;101916.12;3599422;80;26502;-87
2022/11/26 20:06:44;;;;;;;122.73;53.53;;;;;;;3.65;100.00;101915.56;3590944;80;99062;-88
2022/11/26 20:11:45;;;;;;;97.37;48.45;;;;;;;3.67;100.00;101922.08;3599075;80;26329;-87
2022/11/26 20:16:46;;;;;;;110.37;46.67;;;;;;;3.66;100.00;101923.19;3575295;80;98951;-87
2022/11/26 20:21:49;;;;;;;102.57;44.63;;;;;;;3.65;100.00;101931.89;3607054;80;26101;-87
2022/11/26 20:26:49;;;;;;;123.60;54.63;;;;;;;3.67;100.00;101934.33;3609892;79;99075;-87
2022/11/26 20:31:51;;;;;;;121.07;52.67;;;;;;;3.64;100.00;101938.45;3602895;80;26667;-87
2022/11/26 20:36:52;;;;;;;125.90;56.13;;;;;;;3.63;100.00;101937.38;3584684;80;98999;-87
2022/11/26 20:41:54;;;;;;;129.13;56.67;;;;;;;3.63;100.00;101938.20;3610732;80;25945;-87
2022/11/26 20:46:55;;;;;;;116.03;52.67;;;;;;;3.67;100.00;101942.50;3592330;80;98841;-87
2022/11/26 20:51:56;;;;;;;115.07;50.13;;;;;;;3.66;100.00;101947.12;3594173;80;26011;-87
2022/11/26 20:56:57;;;;;;;117.97;50.37;;;;;;;3.67;100.00;101937.84;3599072;80;98799;-87
2022/11/26 21:01:58;;;;;;;104.93;48.17;;;;;;;3.70;100.00;101945.97;3600540;79;26052;-87
2022/11/26 21:06:59;;;;;;;97.50;44.05;;;;;;;3.69;100.00;101944.36;3599616;80;98905;-87
2022/11/26 21:12:00;;;;;;;104.87;45.43;;;;;;;3.67;100.00;101953.39;3605066;80;33232;-87
2022/11/26 21:17:00;;;;;;;94.47;40.33;;;;;;;3.71;100.00;101949.77;3594374;80;99062;-86
2022/11/26 21:22:01;;;;;;;89.23;37.50;;;;;;;3.72;100.00;101950.59;3602904;78;33219;-87
2022/11/26 21:27:03;;;;;;;76.17;35.03;;;;;;;3.73;100.00;101950.31;3597472;80;98798;-87
2022/11/26 21:32:04;;;;;;;71.20;30.13;;;;;;;3.73;100.00;101953.03;3591466;80;33229;-86
2022/11/26 21:37:05;;;;;;;61.73;25.17;;;;;;;3.74;100.00;101946.47;3602482;80;98748;-87
2022/11/26 21:42:06;;;;;;;61.87;26.27;;;;;;;3.76;100.00;101948.91;3600474;80;34155;-87
2022/11/26 21:47:07;;;;;;;59.47;23.97;;;;;;;3.77;100.00;101950.52;3594034;80;98527;-87
2022/11/26 21:52:08;;;;;;;67.70;27.17;;;;;;;3.78;100.00;101944.76;3606445;80;33790;-87
2022/11/26 21:57:08;;;;;;;52.76;21.60;;;;;;;3.80;100.00;101952.10;3591942;80;98645;-87
2022/11/26 22:02:11;;;;;;;66.70;27.30;;;;;;;3.81;100.00;101948.27;3604769;80;31692;-86
2022/11/26 22:07:12;;;;;;;83.97;37.50;;;;;;;3.85;100.00;101943.03;3601795;79;98822;-86
2022/11/26 22:12:13;;;;;;;90.97;38.67;;;;;;;3.87;100.00;101934.83;3604999;80;32205;-87
2022/11/26 22:17:14;;;;;;;76.93;32.97;;;;;;;3.87;100.00;101928.59;3605508;79;98688;-87
2022/11/26 22:22:14;;;;;;;60.30;26.60;;;;;;;3.89;100.00;101926.38;3644338;79;31639;-86
2022/11/26 22:27:15;;;;;;;84.62;33.02;;;;;;;3.90;100.00;101936.15;3644146;79;99246;-87
2022/11/26 22:32:16;;;;;;;82.03;33.60;;;;;;;3.92;100.00;101937.48;3646562;79;31545;-86
2022/11/26 22:37:17;;;;;;;88.50;33.60;;;;;;;3.96;100.00;101934.42;3633075;79;98727;-87
2022/11/26 22:42:17;;;;;;;74.40;30.53;;;;;;;3.98;100.00;101930.84;3666792;79;30800;-87
2022/11/26 22:47:18;;;;;;;89.90;32.17;;;;;;;4.02;100.00;101932.41;3633897;79;98703;-88
2022/11/26 22:52:19;;;;;;;69.80;26.37;;;;;;;4.05;100.00;101922.30;3649064;79;34859;-87
2022/11/26 22:57:20;;;;;;;69.27;29.27;;;;;;;4.08;100.00;101929.86;3647118;79;98947;-87
2022/11/26 23:02:21;;;;;;;81.33;31.57;;;;;;;4.11;100.00;101933.37;3652003;79;34782;-88